Time,TemperatureF,DewpointF,PressureIn,WindDirection,WindDirectionDegrees,WindSpeedMPH,WindSpeedGustMPH,Humidity,HourlyPrecipIn,Conditions,Clouds,dailyrainin,SoftwareType,DateUTC
2013-02-21 16:30:00,38.0,18.6,30.16,NNE,17,6.0,9.0,45,3.88,,---,0.00,VWS V14.01,2013-02-21 21:30:00,
2013-02-21 17:00:00,36.0,18.2,30.18,NNW,339,9.0,14.0,48,0.00,,---,0.00,VWS V14.01,2013-02-21 22:00:00,
2013-02-21 17:30:00,38.0,18.6,30.16,NNE,17,6.0,9.0,45,3.88,,---,0.00,VWS V14.01,2013-02-21 22:30:00,
2013-02-21 17:32:00,38.0,18.6,30.16,NNE,17,6.0,9.0,45,3.88,,---,0.00,VWS V14.01,2013-02-21 22:32:00,
2013-02-21 17:34:00,38.0,18.6,30.16,NNE,17,6.0,9.0,45,3.88,,---,0.00,VWS V14.01,2013-02-21 22:34:00,
2013-02-21 17:57:00,36.0,18.2,30.18,NNW,339,9.0,14.0,48,0.00,,---,0.00,VWS V14.01,2013-02-21 22:57:00,
2013-02-21 18:00:00,36.0,18.2,30.18,NNW,339,9.0,14.0,48,0.00,,---,0.00,VWS V14.01,2013-02-21 23:00:00,
2013-02-21 18:27:00,34.5,17.8,30.20,NE,43,1.0,10.0,50,0.00,,---,0.00,VWS V14.01,2013-02-21 23:27:00,
2013-02-21 18:30:00,34.5,17.8,30.20,NE,43,1.0,10.0,50,0.00,,---,0.00,VWS V14.01,2013-02-21 23:30:00,
2013-02-21 18:57:00,33.8,18.0,30.22,NE,36,6.0,9.0,52,0.00,,---,0.00,VWS V14.01,2013-02-21 23:57:00,
2013-02-21 19:00:00,33.8,18.0,30.22,NE,36,6.0,9.0,52,0.00,,---,0.00,VWS V14.01,2013-02-22 00:00:00,
2013-02-21 19:27:00,33.4,17.7,30.21,NE,49,4.0,12.0,52,0.00,,---,0.00,VWS V14.01,2013-02-22 00:27:00,
2013-02-21 19:30:00,33.4,17.7,30.21,NE,49,4.0,12.0,52,0.00,,---,0.00,VWS V14.01,2013-02-22 00:30:00,
2013-02-21 19:57:00,32.7,17.9,30.23,NE,38,0.0,13.0,54,0.00,,---,0.00,VWS V14.01,2013-02-22 00:57:00,
2013-02-21 20:00:00,32.7,17.9,30.23,NE,38,0.0,13.0,54,0.00,,---,0.00,VWS V14.01,2013-02-22 01:00:00,
2013-02-21 20:27:00,31.7,18.2,30.23,North,349,9.0,10.0,57,0.00,,---,0.00,VWS V14.01,2013-02-22 01:27:00,
2013-02-21 20:30:00,31.7,18.2,30.23,North,349,9.0,10.0,57,0.00,,---,0.00,VWS V14.01,2013-02-22 01:30:00,
2013-02-21 20:57:00,31.6,18.1,30.24,NNE,24,3.0,9.0,57,0.00,,---,0.00,VWS V14.01,2013-02-22 01:57:00,
2013-02-21 21:00:00,31.6,18.1,30.24,NNE,24,3.0,9.0,57,0.00,,---,0.00,VWS V14.01,2013-02-22 02:00:00,
2013-02-21 21:27:00,30.9,18.3,30.25,NNE,15,3.0,4.0,59,0.00,,---,0.00,VWS V14.01,2013-02-22 02:27:00,
2013-02-21 21:30:00,30.9,18.3,30.25,NNE,15,3.0,4.0,59,0.00,,---,0.00,VWS V14.01,2013-02-22 02:30:00,
2013-02-21 21:57:00,30.5,18.7,30.25,North,360,9.0,9.0,61,0.00,,---,0.00,VWS V14.01,2013-02-22 02:57:00,
2013-02-21 22:00:00,30.5,18.7,30.25,North,360,9.0,9.0,61,0.00,,---,0.00,VWS V14.01,2013-02-22 03:00:00,
2013-02-21 22:27:00,30.6,18.4,30.25,North,10,9.0,10.0,60,0.00,,---,0.00,VWS V14.01,2013-02-22 03:27:00,
2013-02-21 22:30:00,30.6,18.4,30.25,North,10,9.0,10.0,60,0.00,,---,0.00,VWS V14.01,2013-02-22 03:30:00,
2013-02-21 22:57:00,29.9,18.5,30.24,NNE,17,6.0,12.0,62,0.00,,---,0.00,VWS V14.01,2013-02-22 03:57:00,
2013-02-21 23:00:00,29.9,18.5,30.24,NNE,17,6.0,12.0,62,0.00,,---,0.00,VWS V14.01,2013-02-22 04:00:00,
2013-02-21 23:10:00,29.7,18.3,30.26,NNE,15,0.0,4.0,62,0.00,,---,0.00,VWS V14.01,2013-02-22 04:10:00,
2013-02-21 23:15:00,29.7,18.3,30.27,NNE,15,0.0,3.0,62,0.00,,---,0.00,VWS V14.01,2013-02-22 04:15:00,
2013-02-21 23:20:00,29.7,18.3,30.27,NNE,15,0.0,0.0,62,0.00,,---,0.00,VWS V14.01,2013-02-22 04:20:00,
2013-02-21 23:25:00,29.6,18.2,30.27,NNE,15,0.0,0.0,62,0.00,,---,0.00,VWS V14.01,2013-02-22 04:25:00,
2013-02-21 23:27:00,29.7,18.3,30.24,NNE,13,5.0,10.0,62,0.00,,---,0.00,VWS V14.01,2013-02-22 04:27:00,
2013-02-21 23:30:00,29.7,18.3,30.24,NNE,13,5.0,10.0,62,0.00,,---,0.00,VWS V14.01,2013-02-22 04:30:00,
2013-02-21 23:35:00,29.6,18.2,30.27,NNE,15,0.0,1.0,62,0.00,,---,0.00,VWS V14.01,2013-02-22 04:35:00,
2013-02-21 23:40:00,29.6,18.2,30.27,NNE,15,0.0,0.0,62,0.00,,---,0.00,VWS V14.01,2013-02-22 04:40:00,
2013-02-21 23:45:00,29.6,18.2,30.27,NNE,15,0.0,3.0,62,0.00,,---,0.00,VWS V14.01,2013-02-22 04:45:00,
2013-02-21 23:50:00,29.6,18.6,30.27,NNE,15,0.0,2.0,63,0.00,,---,0.00,VWS V14.01,2013-02-22 04:50:00,
2013-02-21 23:55:00,29.5,18.5,30.27,NNE,15,0.0,3.0,63,0.00,,---,0.00,VWS V14.01,2013-02-22 04:55:00,
2013-02-21 23:57:00,29.6,18.2,30.26,NNE,13,0.0,7.0,62,0.00,,---,0.00,VWS V14.01,2013-02-22 04:57:00,